Terminal Aerodrome Forecast
Issued by NWS

Home | Current Version | Previous Version | Graphics & Text | Print | Product List | Glossary On
Versions: 1 2 3 4 5 6 7 8 9 10 11 12 13 14 15 16 17 18 19 20 21 22 23 24
000
FTUS43 KOAX 242339
TAFCDR
TAF
KCDR 242339Z 2500/2524 VRB05KT P6SM VCSH BKN060
      TEMPO 2500/2502 5SM -SN BKN025 OVC060
     FM250200 27009KT P6SM BKN060
     FM251700 29018G28KT P6SM SCT050 BKN100=

USA.gov is the U.S. government's official web portal to all federal, state and local government web resources and services.